Terminal Aerodrome Forecast
Issued by NWS

Home | Current Version | Previous Version | Text Only | Print | Product List | Glossary Off
Versions: 1 2 3 4 5 6 7 8 9 10 11 12 13 14

000
FTUS43 KGRB 251631 AAA
TAFATW
TAF AMD
KATW 251631Z 2517/2612 25013G21KT P6SM SCT120 BKN200
     FM252000 22012G18KT P6SM SCT070 BKN120
     FM260000 21008KT P6SM VCSH SCT035 BKN070
      TEMPO 2601/2605 3SM +TSRA BKN025CB
     FM260500 23005KT P6SM VCSH OVC060
     FM260800 22004KT 6SM BR SCT025 BKN070=

USA.gov is the U.S. government's official web portal to all federal, state and local government web resources and services.